sensor_id;sensor_type;location;lat;lon;timestamp;pressure;altitude;pressure_sealevel;temperature;humidity
40788;BME280;26497;52.494;7.546;2023-12-20T00:00:49;100661.91;;;10.54;72.07
40788;BME280;26497;52.494;7.546;2023-12-20T00:03:16;100665.41;;;10.67;72.26
40788;BME280;26497;52.494;7.546;2023-12-20T00:05:45;100665.41;;;10.73;71.98
40788;BME280;26497;52.494;7.546;2023-12-20T00:08:12;100662.81;;;10.62;70.95
40788;BME280;26497;52.494;7.546;2023-12-20T00:10:39;100662.81;;;10.50;70.27
40788;BME280;26497;52.494;7.546;2023-12-20T00:13:10;100655.72;;;10.33;70.70
40788;BME280;26497;52.494;7.546;2023-12-20T00:15:38;100650.47;;;10.30;70.38
40788;BME280;26497;52.494;7.546;2023-12-20T00:18:06;100653.94;;;10.14;69.88
40788;BME280;26497;52.494;7.546;2023-12-20T00:20:35;100653.94;;;10.08;70.19
40788;BME280;26497;52.494;7.546;2023-12-20T00:23:02;100652.16;;;9.97;70.03
40788;BME280;26497;52.494;7.546;2023-12-20T00:25:31;100655.63;;;9.65;72.47
40788;BME280;26497;52.494;7.546;2023-12-20T00:27:58;100654.78;;;9.94;71.29
40788;BME280;26497;52.494;7.546;2023-12-20T00:30:25;100658.28;;;9.82;70.43
40788;BME280;26497;52.494;7.546;2023-12-20T00:32:53;100648.66;;;9.83;70.90
40788;BME280;26497;52.494;7.546;2023-12-20T00:35:21;100657.47;;;9.91;71.22
40788;BME280;26497;52.494;7.546;2023-12-20T00:37:52;100646.91;;;10.00;71.19
40788;BME280;26497;52.494;7.546;2023-12-20T00:40:19;100638.13;;;9.95;71.36
40788;BME280;26497;52.494;7.546;2023-12-20T00:42:47;100639.00;;;10.00;71.35
40788;BME280;26497;52.494;7.546;2023-12-20T00:45:15;100638.16;;;10.06;71.38
40788;BME280;26497;52.494;7.546;2023-12-20T00:47:42;100631.97;;;9.95;70.84
40788;BME280;26497;52.494;7.546;2023-12-20T00:50:11;100642.50;;;9.96;71.01
40788;BME280;26497;52.494;7.546;2023-12-20T00:52:41;100639.00;;;9.93;70.91
40788;BME280;26497;52.494;7.546;2023-12-20T00:55:10;100639.88;;;9.78;71.37
40788;BME280;26497;52.494;7.546;2023-12-20T00:57:37;100638.09;;;9.77;71.06
40788;BME280;26497;52.494;7.546;2023-12-20T01:00:06;100615.22;;;9.60;71.42
40788;BME280;26497;52.494;7.546;2023-12-20T01:02:35;100630.13;;;9.56;71.02
40788;BME280;26497;52.494;7.546;2023-12-20T01:05:04;100626.63;;;9.59;70.12
40788;BME280;26497;52.494;7.546;2023-12-20T01:07:33;100629.25;;;9.50;70.64
40788;BME280;26497;52.494;7.546;2023-12-20T01:10:01;100623.06;;;9.44;71.68
40788;BME280;26497;52.494;7.546;2023-12-20T01:12:29;100625.72;;;9.44;71.87
40788;BME280;26497;52.494;7.546;2023-12-20T01:14:56;100616.91;;;9.36;72.60
40788;BME280;26497;52.494;7.546;2023-12-20T01:17:26;100624.78;;;9.33;72.41
40788;BME280;26497;52.494;7.546;2023-12-20T01:19:53;100619.56;;;9.44;72.55
40788;BME280;26497;52.494;7.546;2023-12-20T01:22:21;100617.84;;;9.51;72.71
40788;BME280;26497;52.494;7.546;2023-12-20T01:24:48;100615.22;;;9.54;71.41
40788;BME280;26497;52.494;7.546;2023-12-20T01:27:18;100605.53;;;9.47;71.95
40788;BME280;26497;52.494;7.546;2023-12-20T01:29:45;100609.03;;;9.47;71.17
40788;BME280;26497;52.494;7.546;2023-12-20T01:32:12;100615.19;;;9.48;71.45
40788;BME280;26497;52.494;7.546;2023-12-20T01:34:40;100615.13;;;9.37;71.49
40788;BME280;26497;52.494;7.546;2023-12-20T01:37:07;100623.94;;;9.40;71.26
40788;BME280;26497;52.494;7.546;2023-12-20T01:39:34;100629.22;;;9.48;70.80
40788;BME280;26497;52.494;7.546;2023-12-20T01:42:03;100627.47;;;9.46;70.52
40788;BME280;26497;52.494;7.546;2023-12-20T01:44:31;100618.63;;;9.36;71.44
40788;BME280;26497;52.494;7.546;2023-12-20T01:46:58;100618.69;;;9.40;70.63
40788;BME280;26497;52.494;7.546;2023-12-20T01:49:28;100615.13;;;9.34;71.44
40788;BME280;26497;52.494;7.546;2023-12-20T01:51:55;100614.25;;;9.30;71.17
40788;BME280;26497;52.494;7.546;2023-12-20T01:54:23;100611.59;;;9.27;70.90
40788;BME280;26497;52.494;7.546;2023-12-20T01:56:50;100605.41;;;9.12;71.63
40788;BME280;26497;52.494;7.546;2023-12-20T01:59:18;100605.41;;;9.14;72.20
40788;BME280;26497;52.494;7.546;2023-12-20T02:01:51;100610.69;;;9.17;72.36
40788;BME280;26497;52.494;7.546;2023-12-20T02:04:18;100611.63;;;9.36;71.48
40788;BME280;26497;52.494;7.546;2023-12-20T02:06:49;100619.50;;;9.35;71.36
40788;BME280;26497;52.494;7.546;2023-12-20T02:09:19;100616.75;;;9.05;73.57
40788;BME280;26497;52.494;7.546;2023-12-20T02:11:46;100607.19;;;9.23;72.80
40788;BME280;26497;52.494;7.546;2023-12-20T02:14:13;100610.75;;;9.36;72.89
40788;BME280;26497;52.494;7.546;2023-12-20T02:16:40;100609.06;;;9.56;71.62
40788;BME280;26497;52.494;7.546;2023-12-20T02:19:14;100601.16;;;9.53;71.86
40788;BME280;26497;52.494;7.546;2023-12-20T02:21:42;100596.75;;;9.48;73.32
40788;BME280;26497;52.494;7.546;2023-12-20T02:24:09;100601.13;;;9.39;74.00
40788;BME280;26497;52.494;7.546;2023-12-20T02:26:37;100595.91;;;9.56;73.96
40788;BME280;26497;52.494;7.546;2023-12-20T02:29:04;100593.28;;;9.63;75.01
40788;BME280;26497;52.494;7.546;2023-12-20T02:31:31;100582.75;;;9.69;75.22
40788;BME280;26497;52.494;7.546;2023-12-20T02:33:58;100588.94;;;9.79;74.40
40788;BME280;26497;52.494;7.546;2023-12-20T02:36:26;100583.63;;;9.57;74.51
40788;BME280;26497;52.494;7.546;2023-12-20T02:38:54;100580.09;;;9.46;74.97
40788;BME280;26497;52.494;7.546;2023-12-20T02:41:21;100576.56;;;9.51;73.92
40788;BME280;26497;52.494;7.546;2023-12-20T02:43:48;100576.63;;;9.67;72.91
40788;BME280;26497;52.494;7.546;2023-12-20T02:46:17;100584.41;;;9.29;73.73
40788;BME280;26497;52.494;7.546;2023-12-20T02:48:45;100587.94;;;9.38;74.01
40788;BME280;26497;52.494;7.546;2023-12-20T02:51:12;100575.66;;;9.37;73.82
40788;BME280;26497;52.494;7.546;2023-12-20T02:53:40;100577.44;;;9.39;73.09
40788;BME280;26497;52.494;7.546;2023-12-20T02:56:09;100574.78;;;9.33;73.20
40788;BME280;26497;52.494;7.546;2023-12-20T02:58:36;100576.56;;;9.37;72.93
40788;BME280;26497;52.494;7.546;2023-12-20T03:01:04;100580.06;;;9.42;73.02
40788;BME280;26497;52.494;7.546;2023-12-20T03:03:33;100578.31;;;9.43;73.81
40788;BME280;26497;52.494;7.546;2023-12-20T03:06:00;100571.34;;;9.62;73.03
40788;BME280;26497;52.494;7.546;2023-12-20T03:08:27;100577.47;;;9.63;73.73
40788;BME280;26497;52.494;7.546;2023-12-20T03:10:56;100579.22;;;9.57;74.51
40788;BME280;26497;52.494;7.546;2023-12-20T03:13:24;100565.19;;;9.54;75.74
40788;BME280;26497;52.494;7.546;2023-12-20T03:15:53;100555.56;;;9.68;75.90
40788;BME280;26497;52.494;7.546;2023-12-20T03:18:20;100554.69;;;9.83;75.45
40788;BME280;26497;52.494;7.546;2023-12-20T03:20:47;100555.59;;;9.93;75.58
40788;BME280;26497;52.494;7.546;2023-12-20T03:23:16;100552.06;;;10.08;74.10
40788;BME280;26497;52.494;7.546;2023-12-20T03:25:43;100554.69;;;9.86;75.20
40788;BME280;26497;52.494;7.546;2023-12-20T03:28:11;100561.72;;;9.78;75.78
40788;BME280;26497;52.494;7.546;2023-12-20T03:30:43;100559.09;;;9.87;76.35
40788;BME280;26497;52.494;7.546;2023-12-20T03:33:10;100553.81;;;10.08;75.59
40788;BME280;26497;52.494;7.546;2023-12-20T03:35:37;100556.47;;;9.97;76.00
40788;BME280;26497;52.494;7.546;2023-12-20T03:38:04;100554.72;;;10.08;75.33
40788;BME280;26497;52.494;7.546;2023-12-20T03:40:32;100538.91;;;9.93;76.13
40788;BME280;26497;52.494;7.546;2023-12-20T03:42:59;100550.31;;;9.68;77.49
40788;BME280;26497;52.494;7.546;2023-12-20T03:45:26;100536.25;;;9.97;76.60
40788;BME280;26497;52.494;7.546;2023-12-20T03:47:54;100536.25;;;10.02;76.58
40788;BME280;26497;52.494;7.546;2023-12-20T03:50:23;100535.38;;;10.01;76.67
40788;BME280;26497;52.494;7.546;2023-12-20T03:52:52;100541.50;;;10.10;76.63
40788;BME280;26497;52.494;7.546;2023-12-20T03:55:19;100528.31;;;10.28;75.80
40788;BME280;26497;52.494;7.546;2023-12-20T03:57:48;100530.09;;;10.28;75.94
40788;BME280;26497;52.494;7.546;2023-12-20T04:00:16;100534.50;;;10.16;76.37
40788;BME280;26497;52.494;7.546;2023-12-20T04:02:43;100536.22;;;10.31;75.53
40788;BME280;26497;52.494;7.546;2023-12-20T04:05:13;100533.59;;;10.44;75.00
40788;BME280;26497;52.494;7.546;2023-12-20T04:07:41;100537.13;;;10.16;76.22
40788;BME280;26497;52.494;7.546;2023-12-20T04:10:11;100531.88;;;10.07;76.01
40788;BME280;26497;52.494;7.546;2023-12-20T04:12:38;100531.88;;;10.04;76.39
40788;BME280;26497;52.494;7.546;2023-12-20T04:15:06;100534.47;;;10.18;76.11
40788;BME280;26497;52.494;7.546;2023-12-20T04:17:35;100531.84;;;10.29;75.73
40788;BME280;26497;52.494;7.546;2023-12-20T04:20:03;100523.06;;;10.41;75.49
40788;BME280;26497;52.494;7.546;2023-12-20T04:22:32;100524.75;;;10.65;74.80
40788;BME280;26497;52.494;7.546;2023-12-20T04:24:59;100545.03;;;10.51;74.48
40788;BME280;26497;52.494;7.546;2023-12-20T04:27:26;100531.84;;;10.54;74.69
40788;BME280;26497;52.494;7.546;2023-12-20T04:29:53;100531.88;;;10.44;75.59
40788;BME280;26497;52.494;7.546;2023-12-20T04:32:20;100536.25;;;10.36;76.20
40788;BME280;26497;52.494;7.546;2023-12-20T04:34:47;100525.69;;;10.31;76.09
40788;BME280;26497;52.494;7.546;2023-12-20T04:37:14;100519.53;;;10.45;75.06
40788;BME280;26497;52.494;7.546;2023-12-20T04:39:43;100517.81;;;10.13;75.82
40788;BME280;26497;52.494;7.546;2023-12-20T04:42:10;100514.28;;;9.98;76.84
40788;BME280;26497;52.494;7.546;2023-12-20T04:44:37;100522.16;;;10.32;76.70
40788;BME280;26497;52.494;7.546;2023-12-20T04:47:04;100522.19;;;10.45;75.63
40788;BME280;26497;52.494;7.546;2023-12-20T04:49:31;100515.16;;;10.36;76.18
40788;BME280;26497;52.494;7.546;2023-12-20T04:51:58;100523.06;;;10.13;77.13
40788;BME280;26497;52.494;7.546;2023-12-20T04:54:25;100511.63;;;10.23;75.87
40788;BME280;26497;52.494;7.546;2023-12-20T04:56:54;100513.41;;;10.20;75.62
40788;BME280;26497;52.494;7.546;2023-12-20T04:59:21;100509.03;;;10.11;75.19
40788;BME280;26497;52.494;7.546;2023-12-20T05:01:48;100506.38;;;9.95;76.07
40788;BME280;26497;52.494;7.546;2023-12-20T05:04:15;100512.56;;;9.93;78.29
40788;BME280;26497;52.494;7.546;2023-12-20T05:06:42;100514.28;;;10.22;77.38
40788;BME280;26497;52.494;7.546;2023-12-20T05:09:09;100518.63;;;10.58;76.09
40788;BME280;26497;52.494;7.546;2023-12-20T05:11:36;100514.28;;;10.42;76.07
40788;BME280;26497;52.494;7.546;2023-12-20T05:14:04;100523.94;;;10.12;77.25
40788;BME280;26497;52.494;7.546;2023-12-20T05:16:31;100520.44;;;10.52;75.90
40788;BME280;26497;52.494;7.546;2023-12-20T05:18:59;100516.88;;;10.60;75.24
40788;BME280;26497;52.494;7.546;2023-12-20T05:21:27;100505.50;;;10.27;75.39
40788;BME280;26497;52.494;7.546;2023-12-20T05:23:56;100501.16;;;9.83;77.06
40788;BME280;26497;52.494;7.546;2023-12-20T05:26:23;100498.47;;;10.04;76.50
40788;BME280;26497;52.494;7.546;2023-12-20T05:28:50;100497.59;;;10.15;76.91
40788;BME280;26497;52.494;7.546;2023-12-20T05:31:19;100501.97;;;10.44;76.60
40788;BME280;26497;52.494;7.546;2023-12-20T05:33:46;100496.63;;;10.69;75.36
40788;BME280;26497;52.494;7.546;2023-12-20T05:36:13;100495.78;;;10.64;75.45
40788;BME280;26497;52.494;7.546;2023-12-20T05:38:40;100487.03;;;10.37;76.61
40788;BME280;26497;52.494;7.546;2023-12-20T05:41:08;100488.78;;;10.44;76.75
40788;BME280;26497;52.494;7.546;2023-12-20T05:43:35;100488.78;;;10.53;76.59
40788;BME280;26497;52.494;7.546;2023-12-20T05:46:02;100492.28;;;10.55;76.18
40788;BME280;26497;52.494;7.546;2023-12-20T05:48:30;100488.78;;;10.38;77.40
40788;BME280;26497;52.494;7.546;2023-12-20T05:50:58;100504.63;;;10.41;77.35
40788;BME280;26497;52.494;7.546;2023-12-20T05:53:25;100500.16;;;10.61;76.58
40788;BME280;26497;52.494;7.546;2023-12-20T05:55:52;100502.88;;;10.47;77.58
40788;BME280;26497;52.494;7.546;2023-12-20T05:58:19;100509.78;;;10.73;76.01
40788;BME280;26497;52.494;7.546;2023-12-20T06:00:46;100501.91;;;10.61;76.07
40788;BME280;26497;52.494;7.546;2023-12-20T06:03:14;100509.03;;;10.43;77.32
40788;BME280;26497;52.494;7.546;2023-12-20T06:05:43;100497.56;;;10.60;76.84
40788;BME280;26497;52.494;7.546;2023-12-20T06:08:10;100493.19;;;10.53;76.06
40788;BME280;26497;52.494;7.546;2023-12-20T06:10:38;100496.69;;;10.47;77.32
40788;BME280;26497;52.494;7.546;2023-12-20T06:13:06;100494.94;;;10.38;77.38
40788;BME280;26497;52.494;7.546;2023-12-20T06:15:33;100505.50;;;10.29;78.40
40788;BME280;26497;52.494;7.546;2023-12-20T06:18:02;100502.88;;;10.09;79.38
40788;BME280;26497;52.494;7.546;2023-12-20T06:20:29;100480.88;;;10.38;78.49
40788;BME280;26497;52.494;7.546;2023-12-20T06:22:57;100488.78;;;10.50;77.59
40788;BME280;26497;52.494;7.546;2023-12-20T06:25:25;100488.78;;;10.58;76.98
40788;BME280;26497;52.494;7.546;2023-12-20T06:27:52;100486.13;;;10.53;76.75
40788;BME280;26497;52.494;7.546;2023-12-20T06:30:19;100498.44;;;10.56;77.38
40788;BME280;26497;52.494;7.546;2023-12-20T06:32:46;100487.81;;;10.79;76.21
40788;BME280;26497;52.494;7.546;2023-12-20T06:35:13;100482.50;;;10.85;75.49
40788;BME280;26497;52.494;7.546;2023-12-20T06:37:40;100479.03;;;10.71;76.19
40788;BME280;26497;52.494;7.546;2023-12-20T06:40:10;100481.66;;;10.74;76.01
40788;BME280;26497;52.494;7.546;2023-12-20T06:42:37;100461.44;;;10.68;75.68
40788;BME280;26497;52.494;7.546;2023-12-20T06:45:05;100474.69;;;10.57;77.05
40788;BME280;26497;52.494;7.546;2023-12-20T06:47:32;100478.25;;;10.49;77.13
40788;BME280;26497;52.494;7.546;2023-12-20T06:50:00;100457.03;;;10.76;75.98
40788;BME280;26497;52.494;7.546;2023-12-20T06:52:27;100464.09;;;10.67;76.08
40788;BME280;26497;52.494;7.546;2023-12-20T06:54:54;100482.63;;;10.39;78.21
40788;BME280;26497;52.494;7.546;2023-12-20T06:57:23;100468.59;;;10.47;77.42
40788;BME280;26497;52.494;7.546;2023-12-20T06:59:52;100481.72;;;10.55;76.67
40788;BME280;26497;52.494;7.546;2023-12-20T07:02:19;100474.63;;;10.76;75.52
40788;BME280;26497;52.494;7.546;2023-12-20T07:04:48;100469.44;;;10.39;76.71
40788;BME280;26497;52.494;7.546;2023-12-20T07:07:15;100468.59;;;10.44;77.40
40788;BME280;26497;52.494;7.546;2023-12-20T07:09:42;100469.38;;;10.73;76.29
40788;BME280;26497;52.494;7.546;2023-12-20T07:12:09;100466.75;;;10.67;76.11
40788;BME280;26497;52.494;7.546;2023-12-20T07:14:40;100466.81;;;10.51;76.69
40788;BME280;26497;52.494;7.546;2023-12-20T07:17:07;100462.41;;;10.55;77.00
40788;BME280;26497;52.494;7.546;2023-12-20T07:19:37;100457.06;;;10.69;76.13
40788;BME280;26497;52.494;7.546;2023-12-20T07:22:05;100451.00;;;10.34;78.00
40788;BME280;26497;52.494;7.546;2023-12-20T07:24:32;100454.53;;;10.25;78.29
40788;BME280;26497;52.494;7.546;2023-12-20T07:26:59;100444.00;;;10.42;77.83
40788;BME280;26497;52.494;7.546;2023-12-20T07:29:26;100447.47;;;10.51;77.19
40788;BME280;26497;52.494;7.546;2023-12-20T07:31:55;100449.19;;;10.62;76.33
40788;BME280;26497;52.494;7.546;2023-12-20T07:34:22;100440.41;;;10.60;76.36
40788;BME280;26497;52.494;7.546;2023-12-20T07:36:49;100450.88;;;10.74;76.28
40788;BME280;26497;52.494;7.546;2023-12-20T07:39:16;100438.59;;;10.67;76.05
40788;BME280;26497;52.494;7.546;2023-12-20T07:41:44;100448.34;;;10.59;76.06
40788;BME280;26497;52.494;7.546;2023-12-20T07:44:11;100452.72;;;10.57;76.44
40788;BME280;26497;52.494;7.546;2023-12-20T07:46:38;100456.94;;;10.92;75.23
40788;BME280;26497;52.494;7.546;2023-12-20T07:49:06;100436.75;;;10.85;75.66
40788;BME280;26497;52.494;7.546;2023-12-20T07:51:34;100443.84;;;10.73;75.87
40788;BME280;26497;52.494;7.546;2023-12-20T07:54:01;100444.81;;;10.55;76.38
40788;BME280;26497;52.494;7.546;2023-12-20T07:56:29;100431.66;;;10.49;77.15
40788;BME280;26497;52.494;7.546;2023-12-20T07:58:56;100445.69;;;10.57;77.15
40788;BME280;26497;52.494;7.546;2023-12-20T08:01:23;100452.69;;;10.63;77.15
40788;BME280;26497;52.494;7.546;2023-12-20T08:03:50;100450.00;;;10.74;76.41
40788;BME280;26497;52.494;7.546;2023-12-20T08:06:19;100459.69;;;10.75;76.04
40788;BME280;26497;52.494;7.546;2023-12-20T08:08:46;100448.38;;;10.42;77.30
40788;BME280;26497;52.494;7.546;2023-12-20T08:11:13;100447.34;;;10.80;76.29
40788;BME280;26497;52.494;7.546;2023-12-20T08:13:40;100426.25;;;10.79;75.98
40788;BME280;26497;52.494;7.546;2023-12-20T08:16:07;100432.44;;;10.71;76.00
40788;BME280;26497;52.494;7.546;2023-12-20T08:18:34;100444.69;;;10.83;76.33
40788;BME280;26497;52.494;7.546;2023-12-20T08:21:02;100455.22;;;10.93;75.55
40788;BME280;26497;52.494;7.546;2023-12-20T08:23:30;100437.56;;;11.01;75.69
40788;BME280;26497;52.494;7.546;2023-12-20T08:25:57;100434.03;;;11.03;75.20
40788;BME280;26497;52.494;7.546;2023-12-20T08:28:24;100429.63;;;11.07;74.88
40788;BME280;26497;52.494;7.546;2023-12-20T08:30:51;100436.69;;;10.97;75.12
40788;BME280;26497;52.494;7.546;2023-12-20T08:33:19;100432.28;;;11.01;75.72
40788;BME280;26497;52.494;7.546;2023-12-20T08:35:46;100434.97;;;10.95;75.15
40788;BME280;26497;52.494;7.546;2023-12-20T08:38:13;100432.38;;;10.85;76.36
40788;BME280;26497;52.494;7.546;2023-12-20T08:40:42;100434.91;;;11.02;75.79
40788;BME280;26497;52.494;7.546;2023-12-20T08:43:09;100435.91;;;10.76;76.05
40788;BME280;26497;52.494;7.546;2023-12-20T08:45:37;100439.41;;;10.83;76.39
40788;BME280;26497;52.494;7.546;2023-12-20T08:48:06;100431.44;;;10.94;76.46
40788;BME280;26497;52.494;7.546;2023-12-20T08:50:33;100431.50;;;10.86;75.73
40788;BME280;26497;52.494;7.546;2023-12-20T08:53:01;100425.34;;;10.87;76.58
40788;BME280;26497;52.494;7.546;2023-12-20T08:55:28;100427.91;;;10.95;76.17
40788;BME280;26497;52.494;7.546;2023-12-20T08:57:59;100437.69;;;10.79;77.55
40788;BME280;26497;52.494;7.546;2023-12-20T09:00:26;100433.16;;;10.98;76.86
40788;BME280;26497;52.494;7.546;2023-12-20T09:02:54;100427.13;;;10.82;77.05
40788;BME280;26497;52.494;7.546;2023-12-20T09:05:21;100424.56;;;10.67;77.76
40788;BME280;26497;52.494;7.546;2023-12-20T09:07:48;100422.84;;;10.58;78.29
40788;BME280;26497;52.494;7.546;2023-12-20T09:10:15;100425.47;;;10.59;78.73
40788;BME280;26497;52.494;7.546;2023-12-20T09:12:47;100427.03;;;10.93;77.33
40788;BME280;26497;52.494;7.546;2023-12-20T09:15:16;100422.66;;;10.89;78.10
40788;BME280;26497;52.494;7.546;2023-12-20T09:17:43;100419.94;;;11.09;76.82
40788;BME280;26497;52.494;7.546;2023-12-20T09:20:10;100424.47;;;10.82;77.28
40788;BME280;26497;52.494;7.546;2023-12-20T09:22:39;100429.75;;;10.77;78.62
40788;BME280;26497;52.494;7.546;2023-12-20T09:25:09;100417.41;;;10.87;78.02
40788;BME280;26497;52.494;7.546;2023-12-20T09:27:36;100420.91;;;10.91;78.45
40788;BME280;26497;52.494;7.546;2023-12-20T09:30:04;100422.69;;;10.83;78.74
40788;BME280;26497;52.494;7.546;2023-12-20T09:32:33;100421.81;;;10.88;78.68
40788;BME280;26497;52.494;7.546;2023-12-20T09:35:00;100423.59;;;10.83;79.05
40788;BME280;26497;52.494;7.546;2023-12-20T09:37:27;100420.88;;;10.97;77.91
40788;BME280;26497;52.494;7.546;2023-12-20T09:39:55;100436.66;;;11.03;78.20
40788;BME280;26497;52.494;7.546;2023-12-20T09:42:29;100435.88;;;10.90;78.37
40788;BME280;26497;52.494;7.546;2023-12-20T09:45:01;100434.78;;;11.21;77.22
40788;BME280;26497;52.494;7.546;2023-12-20T09:47:29;100426.88;;;11.21;76.71
40788;BME280;26497;52.494;7.546;2023-12-20T09:49:57;100430.38;;;11.25;76.75
40788;BME280;26497;52.494;7.546;2023-12-20T09:52:24;100445.34;;;11.21;76.78
40788;BME280;26497;52.494;7.546;2023-12-20T09:54:53;100432.22;;;11.12;77.71
40788;BME280;26497;52.494;7.546;2023-12-20T09:57:21;100425.03;;;11.31;76.77
40788;BME280;26497;52.494;7.546;2023-12-20T09:59:48;100422.28;;;11.48;76.16
40788;BME280;26497;52.494;7.546;2023-12-20T10:02:17;100416.00;;;11.60;75.54
40788;BME280;26497;52.494;7.546;2023-12-20T10:04:48;100412.63;;;11.47;76.01
40788;BME280;26497;52.494;7.546;2023-12-20T10:07:17;100416.22;;;11.32;76.54
40788;BME280;26497;52.494;7.546;2023-12-20T10:09:44;100416.22;;;11.36;76.96
40788;BME280;26497;52.494;7.546;2023-12-20T10:12:12;100421.50;;;11.32;77.47
40788;BME280;26497;52.494;7.546;2023-12-20T10:14:39;100419.56;;;11.56;77.00
40788;BME280;26497;52.494;7.546;2023-12-20T10:17:07;100420.38;;;11.64;76.67
40788;BME280;26497;52.494;7.546;2023-12-20T10:19:34;100415.66;;;11.95;76.28
40788;BME280;26497;52.494;7.546;2023-12-20T10:22:04;100421.56;;;12.26;77.37
40788;BME280;26497;52.494;7.546;2023-12-20T10:24:33;100419.06;;;12.15;77.25
40788;BME280;26497;52.494;7.546;2023-12-20T10:27:03;100421.78;;;12.05;76.76
40788;BME280;26497;52.494;7.546;2023-12-20T10:29:34;100417.06;;;12.34;76.28
40788;BME280;26497;52.494;7.546;2023-12-20T10:32:30;100405.72;;;12.24;76.26
40788;BME280;26497;52.494;7.546;2023-12-20T10:34:57;100405.06;;;12.02;76.70
40788;BME280;26497;52.494;7.546;2023-12-20T10:37:25;100397.84;;;12.19;75.86
40788;BME280;26497;52.494;7.546;2023-12-20T10:39:54;100388.41;;;12.68;76.30
40788;BME280;26497;52.494;7.546;2023-12-20T10:42:26;100391.50;;;12.33;73.71
40788;BME280;26497;52.494;7.546;2023-12-20T10:44:53;100396.88;;;12.27;72.45
40788;BME280;26497;52.494;7.546;2023-12-20T10:47:21;100398.34;;;11.68;74.82
40788;BME280;26497;52.494;7.546;2023-12-20T10:49:50;100390.28;;;11.82;74.51
40788;BME280;26497;52.494;7.546;2023-12-20T10:52:19;100402.44;;;12.02;73.29
40788;BME280;26497;52.494;7.546;2023-12-20T10:54:49;100403.31;;;11.98;73.69
40788;BME280;26497;52.494;7.546;2023-12-20T10:57:18;100402.69;;;11.72;74.68
40788;BME280;26497;52.494;7.546;2023-12-20T10:59:48;100392.16;;;11.71;75.54
40788;BME280;26497;52.494;7.546;2023-12-20T11:02:18;100453.63;;;11.90;74.73
40788;BME280;26497;52.494;7.546;2023-12-20T11:04:52;100444.22;;;11.59;72.33
40788;BME280;26497;52.494;7.546;2023-12-20T11:07:25;100444.53;;;11.14;72.38
40788;BME280;26497;52.494;7.546;2023-12-20T11:10:00;100462.09;;;11.18;72.19
40788;BME280;26497;52.494;7.546;2023-12-20T11:12:39;100458.44;;;11.38;71.84
40788;BME280;26497;52.494;7.546;2023-12-20T11:15:10;100448.63;;;11.53;71.98
40788;BME280;26497;52.494;7.546;2023-12-20T11:17:39;100448.91;;;11.17;72.68
40788;BME280;26497;52.494;7.546;2023-12-20T11:20:09;100441.63;;;11.50;72.05
40788;BME280;26497;52.494;7.546;2023-12-20T11:22:51;100440.91;;;11.29;71.91
40788;BME280;26497;52.494;7.546;2023-12-20T11:25:18;100424.06;;;11.44;72.40
40788;BME280;26497;52.494;7.546;2023-12-20T11:28:09;100422.31;;;11.45;72.10
40788;BME280;26497;52.494;7.546;2023-12-20T11:30:46;100419.94;;;11.04;72.57
40788;BME280;26497;52.494;7.546;2023-12-20T11:33:14;100414.56;;;11.20;72.84
40788;BME280;26497;52.494;7.546;2023-12-20T11:35:42;100410.91;;;11.35;72.48
40788;BME280;26497;52.494;7.546;2023-12-20T11:38:09;100404.72;;;11.44;71.75
40788;BME280;26497;52.494;7.546;2023-12-20T11:40:37;100404.53;;;11.64;71.98
40788;BME280;26497;52.494;7.546;2023-12-20T11:43:04;100397.56;;;11.57;71.62
40788;BME280;26497;52.494;7.546;2023-12-20T11:45:32;100402.00;;;11.53;71.25
40788;BME280;26497;52.494;7.546;2023-12-20T11:48:02;100403.59;;;11.73;71.09
40788;BME280;26497;52.494;7.546;2023-12-20T11:50:30;100411.47;;;11.77;70.69
40788;BME280;26497;52.494;7.546;2023-12-20T11:52:58;100408.84;;;11.76;70.12
40788;BME280;26497;52.494;7.546;2023-12-20T11:55:27;100407.88;;;11.86;69.72
40788;BME280;26497;52.494;7.546;2023-12-20T11:57:54;100399.81;;;11.97;69.23
40788;BME280;26497;52.494;7.546;2023-12-20T12:00:21;100398.88;;;12.07;69.38
40788;BME280;26497;52.494;7.546;2023-12-20T12:03:01;100403.16;;;12.16;69.31
40788;BME280;26497;52.494;7.546;2023-12-20T12:05:31;100400.56;;;12.15;68.38
40788;BME280;26497;52.494;7.546;2023-12-20T12:07:58;100398.91;;;12.03;68.67
40788;BME280;26497;52.494;7.546;2023-12-20T12:10:25;100390.72;;;12.26;67.73
40788;BME280;26497;52.494;7.546;2023-12-20T12:12:53;100391.56;;;12.31;67.45
40788;BME280;26497;52.494;7.546;2023-12-20T12:15:22;100393.25;;;12.35;66.86
40788;BME280;26497;52.494;7.546;2023-12-20T12:17:54;100389.19;;;12.06;67.23
40788;BME280;26497;52.494;7.546;2023-12-20T12:20:26;100385.50;;;12.18;66.20
40788;BME280;26497;52.494;7.546;2023-12-20T12:23:03;100394.50;;;12.03;65.72
40788;BME280;26497;52.494;7.546;2023-12-20T12:25:34;100389.31;;;11.91;66.64
40788;BME280;26497;52.494;7.546;2023-12-20T12:28:02;100380.53;;;11.90;66.77
40788;BME280;26497;52.494;7.546;2023-12-20T12:30:29;100383.97;;;12.00;66.93
40788;BME280;26497;52.494;7.546;2023-12-20T12:32:57;100382.22;;;11.94;66.89
40788;BME280;26497;52.494;7.546;2023-12-20T12:35:26;100378.06;;;11.72;66.95
40788;BME280;26497;52.494;7.546;2023-12-20T12:37:53;100382.25;;;11.93;66.76
40788;BME280;26497;52.494;7.546;2023-12-20T12:40:20;100371.44;;;12.18;66.27
40788;BME280;26497;52.494;7.546;2023-12-20T12:42:47;100364.41;;;12.15;66.58
40788;BME280;26497;52.494;7.546;2023-12-20T12:45:15;100358.88;;;12.35;66.06
40788;BME280;26497;52.494;7.546;2023-12-20T12:47:42;100361.97;;;12.68;65.09
40788;BME280;26497;52.494;7.546;2023-12-20T12:50:09;100365.25;;;12.86;63.97
40788;BME280;26497;52.494;7.546;2023-12-20T12:52:39;100361.69;;;12.87;63.83
40788;BME280;26497;52.494;7.546;2023-12-20T12:55:06;100356.34;;;12.92;63.65
40788;BME280;26497;52.494;7.546;2023-12-20T12:57:34;100348.84;;;12.59;63.85